Time;durP1;ratioP1;P1;durP2;ratioP2;P2;SDS_P1;SDS_P2;PMS_P1;PMS_P2;Temp;Humidity;BMP_temperature;BMP_pressure;BME280_temperature;BME280_humidity;BME280_pressure;Samples;Min_cycle;Max_cycle;Signal;HPM_P1;HPM_P2
2023/05/07 00:00:18;;;;;;;13.77;12.70;;;17.00;99.90;;;;;;5013297;28;20437;-85
2023/05/07 00:02:45;;;;;;;13.50;12.60;;;17.00;99.90;;;;;;5015130;28;20292;-85
2023/05/07 00:05:11;;;;;;;13.43;12.47;;;17.00;99.90;;;;;;5014461;28;20791;-84
2023/05/07 00:07:37;;;;;;;13.73;12.50;;;17.00;99.90;;;;;;5015369;28;20509;-86
2023/05/07 00:10:03;;;;;;;14.67;13.43;;;17.00;99.90;;;;;;5014631;28;20497;-84
2023/05/07 00:12:33;;;;;;;14.30;13.10;;;17.00;99.90;;;;;;5014400;28;20762;-87
2023/05/07 00:15:01;;;;;;;14.77;13.50;;;17.00;99.90;;;;;;5014208;28;21118;-85
2023/05/07 00:17:27;;;;;;;14.90;13.67;;;17.00;99.90;;;;;;5014809;28;20488;-85
2023/05/07 00:19:53;;;;;;;14.37;13.20;;;17.00;99.90;;;;;;5012711;28;20437;-84
2023/05/07 00:22:18;;;;;;;14.07;13.07;;;17.00;99.90;;;;;;5010201;28;20193;-83
2023/05/07 00:24:44;;;;;;;14.30;13.00;;;16.90;99.90;;;;;;5007690;28;20306;-84
2023/05/07 00:27:10;;;;;;;14.53;13.43;;;16.90;99.90;;;;;;5010369;28;20266;-87
2023/05/07 00:29:36;;;;;;;14.53;13.53;;;17.00;99.90;;;;;;5009310;28;20184;-88
2023/05/07 00:32:02;;;;;;;13.90;12.80;;;17.00;99.90;;;;;;5008936;28;20191;-85
2023/05/07 00:34:28;;;;;;;13.50;12.47;;;17.00;99.90;;;;;;5010811;28;20449;-84
2023/05/07 00:36:53;;;;;;;13.70;12.70;;;17.00;99.90;;;;;;5010354;28;20226;-84
2023/05/07 00:39:20;;;;;;;14.67;13.63;;;16.90;99.90;;;;;;4996543;28;20187;-84
2023/05/07 00:41:46;;;;;;;14.50;13.40;;;16.90;99.90;;;;;;5008978;28;20425;-85
2023/05/07 00:44:11;;;;;;;15.10;13.80;;;16.90;99.90;;;;;;5006724;28;20427;-83
2023/05/07 00:46:37;;;;;;;13.60;12.60;;;16.90;99.90;;;;;;5001944;28;20255;-80
2023/05/07 00:49:03;;;;;;;13.57;12.57;;;16.90;99.90;;;;;;5010735;28;20189;-83
2023/05/07 00:51:30;;;;;;;15.00;13.80;;;16.80;99.90;;;;;;5008021;28;20509;-82
2023/05/07 00:53:56;;;;;;;13.87;12.77;;;16.80;99.90;;;;;;5000252;28;20783;-85
2023/05/07 00:56:22;;;;;;;14.07;12.93;;;16.90;99.90;;;;;;4995267;28;20450;-84
2023/05/07 00:58:49;;;;;;;14.67;13.53;;;16.90;99.90;;;;;;4994156;28;20179;-84
2023/05/07 01:01:18;;;;;;;14.00;12.90;;;16.90;99.90;;;;;;5007911;28;20426;-84
2023/05/07 01:03:45;;;;;;;14.50;13.50;;;16.90;99.90;;;;;;5007970;28;20822;-80
2023/05/07 01:06:12;;;;;;;14.60;13.30;;;16.90;99.90;;;;;;4994306;28;20485;-87
2023/05/07 01:08:40;;;;;;;14.60;13.60;;;16.90;99.90;;;;;;4994331;28;20407;-81
2023/05/07 01:11:07;;;;;;;14.77;13.47;;;16.80;99.90;;;;;;4994367;28;20490;-86
2023/05/07 01:13:35;;;;;;;13.57;12.57;;;16.70;99.90;;;;;;4993861;28;20903;-87
2023/05/07 01:16:01;;;;;;;13.30;12.40;;;16.70;99.90;;;;;;4993712;28;20469;-87
2023/05/07 01:18:28;;;;;;;14.60;13.47;;;16.70;99.90;;;;;;5007030;28;20422;-86
2023/05/07 01:20:57;;;;;;;13.80;12.77;;;16.70;99.90;;;;;;5013518;28;20409;-86
2023/05/07 01:23:23;;;;;;;14.30;13.30;;;16.70;99.90;;;;;;5011167;28;20485;-86
2023/05/07 01:25:52;;;;;;;14.40;13.30;;;16.60;99.90;;;;;;5007738;28;20434;-85
2023/05/07 01:28:19;;;;;;;13.77;12.77;;;16.70;99.90;;;;;;5006707;28;20237;-86
2023/05/07 01:30:47;;;;;;;14.97;13.87;;;16.70;99.90;;;;;;5013334;28;20418;-85
2023/05/07 01:33:18;;;;;;;15.03;13.83;;;16.70;99.90;;;;;;5014724;28;20547;-85
2023/05/07 01:35:47;;;;;;;13.23;12.23;;;16.70;99.90;;;;;;5013262;28;20477;-82
2023/05/07 01:38:13;;;;;;;14.20;13.10;;;16.80;99.90;;;;;;5013230;28;20941;-85
2023/05/07 01:40:39;;;;;;;13.63;12.73;;;16.80;99.90;;;;;;5012723;28;20844;-84
2023/05/07 01:43:06;;;;;;;13.83;12.83;;;16.80;99.90;;;;;;5012554;28;20413;-85
2023/05/07 01:45:33;;;;;;;14.27;13.20;;;16.80;99.90;;;;;;5012404;28;20206;-84
2023/05/07 01:48:00;;;;;;;14.67;13.47;;;16.80;99.90;;;;;;5012516;28;20773;-85
2023/05/07 01:50:27;;;;;;;13.60;12.70;;;16.80;99.90;;;;;;5012430;28;20810;-84
2023/05/07 01:52:56;;;;;;;14.33;13.20;;;16.80;99.90;;;;;;5008974;28;20434;-84
2023/05/07 01:55:22;;;;;;;13.60;12.70;;;16.80;99.90;;;;;;5013542;28;20457;-85
2023/05/07 01:57:48;;;;;;;13.27;12.37;;;16.80;99.90;;;;;;5012316;28;20209;-84
2023/05/07 02:00:17;;;;;;;13.50;12.50;;;16.80;99.90;;;;;;5011134;28;20438;-85
2023/05/07 02:02:43;;;;;;;13.80;12.80;;;16.80;99.90;;;;;;5011919;28;20515;-79
2023/05/07 02:05:09;;;;;;;13.67;12.70;;;16.80;99.90;;;;;;5012871;28;20441;-85
2023/05/07 02:07:35;;;;;;;13.87;12.87;;;16.80;99.90;;;;;;5012649;28;20525;-86
2023/05/07 02:10:00;;;;;;;12.67;11.77;;;16.80;99.90;;;;;;5011847;28;20429;-86
2023/05/07 02:12:26;;;;;;;14.50;13.30;;;16.80;99.90;;;;;;5011698;28;20183;-84
2023/05/07 02:14:55;;;;;;;14.23;13.10;;;16.80;99.90;;;;;;5012653;28;20175;-86
2023/05/07 02:17:21;;;;;;;14.70;13.70;;;16.70;99.90;;;;;;5012109;28;20854;-82
2023/05/07 02:19:46;;;;;;;13.70;12.70;;;16.70;99.90;;;;;;5011965;28;20187;-84
2023/05/07 02:22:12;;;;;;;13.63;12.63;;;16.70;99.90;;;;;;5011479;28;20182;-85
2023/05/07 02:24:38;;;;;;;13.20;11.70;;;16.60;99.90;;;;;;5012055;28;20179;-84
2023/05/07 02:27:04;;;;;;;12.00;11.20;;;16.60;99.90;;;;;;5015049;28;20179;-86
2023/05/07 02:29:30;;;;;;;13.03;12.13;;;16.60;99.90;;;;;;5015783;28;20182;-85
2023/05/07 02:31:55;;;;;;;12.10;11.30;;;16.60;99.90;;;;;;5013919;28;20258;-86
2023/05/07 02:34:21;;;;;;;13.03;12.03;;;16.50;99.90;;;;;;5018553;28;20186;-85
2023/05/07 02:36:47;;;;;;;13.93;12.83;;;16.50;99.90;;;;;;5018073;28;20203;-83
2023/05/07 02:39:13;;;;;;;13.00;12.00;;;16.50;99.90;;;;;;5018062;28;20587;-83
2023/05/07 02:41:39;;;;;;;13.40;12.33;;;16.40;99.90;;;;;;5015716;28;20207;-82
2023/05/07 02:44:05;;;;;;;12.97;12.07;;;16.40;99.90;;;;;;5015837;28;21066;-84
2023/05/07 02:46:31;;;;;;;13.03;12.10;;;16.40;99.90;;;;;;5014071;28;20453;-86
2023/05/07 02:48:57;;;;;;;12.10;11.30;;;16.40;99.90;;;;;;5011467;28;20442;-81
2023/05/07 02:51:23;;;;;;;12.97;11.77;;;16.40;99.90;;;;;;5010823;28;20552;-86
2023/05/07 02:53:49;;;;;;;11.87;10.97;;;16.40;99.90;;;;;;5011608;28;20182;-85
2023/05/07 02:56:14;;;;;;;13.47;12.57;;;16.30;99.90;;;;;;5012098;28;20402;-84
2023/05/07 02:58:41;;;;;;;13.87;12.67;;;16.30;99.90;;;;;;5012610;28;20179;-85
2023/05/07 03:01:08;;;;;;;14.03;12.93;;;16.30;99.90;;;;;;5011223;28;20194;-85
2023/05/07 03:03:34;;;;;;;13.03;12.00;;;16.30;99.90;;;;;;5012560;28;20410;-86
2023/05/07 03:06:00;;;;;;;13.67;12.37;;;16.30;99.90;;;;;;5011804;28;20417;-87
2023/05/07 03:08:26;;;;;;;11.60;10.80;;;16.30;99.90;;;;;;5012585;28;20437;-86
2023/05/07 03:10:52;;;;;;;13.10;12.10;;;16.20;99.90;;;;;;5010807;28;20453;-87
2023/05/07 03:13:18;;;;;;;14.00;12.80;;;16.20;99.90;;;;;;5013384;28;20179;-85
2023/05/07 03:15:44;;;;;;;12.93;11.93;;;16.20;99.90;;;;;;5016013;28;20741;-80
2023/05/07 03:18:10;;;;;;;12.50;11.50;;;16.20;99.90;;;;;;5015698;28;20464;-86
2023/05/07 03:20:36;;;;;;;13.27;12.37;;;16.20;99.90;;;;;;5014621;28;20179;-85
2023/05/07 03:23:02;;;;;;;12.53;11.63;;;16.20;99.90;;;;;;5013440;28;20434;-85
2023/05/07 03:25:29;;;;;;;12.87;11.77;;;16.20;99.90;;;;;;5014825;28;20418;-85
2023/05/07 03:27:56;;;;;;;12.37;11.37;;;16.20;99.90;;;;;;5015292;28;20961;-87
2023/05/07 03:30:22;;;;;;;13.27;12.10;;;16.20;99.90;;;;;;5015869;28;20416;-85
2023/05/07 03:32:47;;;;;;;13.00;12.00;;;16.10;99.90;;;;;;5015633;28;20898;-79
2023/05/07 03:35:13;;;;;;;12.80;11.80;;;16.10;99.90;;;;;;5015845;28;20560;-85
2023/05/07 03:37:40;;;;;;;12.80;11.73;;;16.10;99.90;;;;;;5015575;28;20198;-85
2023/05/07 03:40:06;;;;;;;13.23;12.23;;;16.10;99.90;;;;;;5015121;28;20401;-86
2023/05/07 03:42:32;;;;;;;13.20;12.10;;;16.10;99.90;;;;;;5014039;28;20516;-84
2023/05/07 03:44:57;;;;;;;12.33;11.43;;;16.20;99.90;;;;;;5014465;28;20496;-84
2023/05/07 03:47:23;;;;;;;13.37;12.37;;;16.10;99.90;;;;;;5015724;28;20194;-85
2023/05/07 03:49:50;;;;;;;13.10;12.10;;;16.20;99.90;;;;;;5013155;28;20181;-80
2023/05/07 03:52:16;;;;;;;12.53;11.33;;;16.10;99.90;;;;;;5014479;28;20281;-84
2023/05/07 03:54:41;;;;;;;13.37;12.37;;;16.10;99.90;;;;;;5015226;28;20508;-84
2023/05/07 03:57:07;;;;;;;15.33;12.73;;;16.10;99.90;;;;;;5013626;28;21072;-85
2023/05/07 03:59:33;;;;;;;13.43;12.33;;;16.10;99.90;;;;;;5015310;28;20186;-85
2023/05/07 04:01:59;;;;;;;13.23;12.17;;;16.10;99.90;;;;;;5013584;28;20198;-85
2023/05/07 04:04:24;;;;;;;13.23;12.33;;;16.10;99.90;;;;;;5015124;28;20174;-86
2023/05/07 04:06:51;;;;;;;13.03;12.13;;;16.10;99.90;;;;;;5014627;28;20179;-80
2023/05/07 04:09:17;;;;;;;13.00;12.10;;;16.10;99.90;;;;;;5013587;28;20186;-86
2023/05/07 04:11:42;;;;;;;13.33;12.30;;;16.10;99.90;;;;;;5014465;28;20433;-84
2023/05/07 04:14:08;;;;;;;12.83;11.83;;;16.00;99.90;;;;;;5014326;28;20174;-86
2023/05/07 04:16:35;;;;;;;13.67;12.27;;;16.00;99.90;;;;;;5014757;28;20989;-86
2023/05/07 04:19:00;;;;;;;12.60;11.60;;;16.00;99.90;;;;;;5014344;28;20186;-85
2023/05/07 04:21:26;;;;;;;12.60;11.70;;;16.00;99.90;;;;;;5013773;28;20417;-85
2023/05/07 04:23:52;;;;;;;13.03;12.13;;;16.00;99.90;;;;;;5013405;28;20600;-84
2023/05/07 04:26:18;;;;;;;12.10;11.10;;;16.00;99.90;;;;;;5014597;28;20466;-84
2023/05/07 04:28:44;;;;;;;13.17;12.17;;;16.00;99.90;;;;;;5014716;28;20640;-85
2023/05/07 04:31:10;;;;;;;12.97;12.00;;;15.90;99.90;;;;;;5013708;28;20182;-85
2023/05/07 04:33:35;;;;;;;14.33;13.10;;;15.70;99.90;;;;;;5014560;28;20185;-86
2023/05/07 04:36:03;;;;;;;13.10;12.17;;;15.60;99.90;;;;;;5013742;28;20428;-86
2023/05/07 04:38:32;;;;;;;14.10;13.00;;;15.60;99.90;;;;;;5013303;28;20225;-86
2023/05/07 04:41:03;;;;;;;12.60;11.43;;;15.70;99.90;;;;;;5014263;28;20451;-85
2023/05/07 04:43:29;;;;;;;13.13;11.83;;;15.80;99.90;;;;;;5014676;28;20400;-86
2023/05/07 04:45:55;;;;;;;13.47;12.47;;;15.80;99.90;;;;;;5013594;28;20409;-85
2023/05/07 04:48:21;;;;;;;12.33;11.50;;;15.90;99.90;;;;;;5013997;28;20515;-86
2023/05/07 04:50:50;;;;;;;13.80;12.70;;;15.90;99.90;;;;;;5014183;28;20230;-86
2023/05/07 04:53:17;;;;;;;13.00;12.00;;;15.90;99.90;;;;;;5012932;28;20650;-85
2023/05/07 04:55:44;;;;;;;12.30;11.30;;;15.90;99.90;;;;;;5014083;28;20422;-84
2023/05/07 04:58:10;;;;;;;13.33;12.33;;;16.00;99.90;;;;;;5013374;28;21093;-84
2023/05/07 05:00:36;;;;;;;13.33;12.27;;;15.90;99.90;;;;;;5014329;28;20515;-86
2023/05/07 05:03:02;;;;;;;12.30;11.30;;;15.80;99.90;;;;;;5037040;28;20418;-84
2023/05/07 05:05:28;;;;;;;12.17;11.30;;;15.90;99.90;;;;;;5037375;28;20179;-84
2023/05/07 05:07:53;;;;;;;11.80;10.87;;;16.00;99.90;;;;;;5038181;28;20167;-79
2023/05/07 05:10:19;;;;;;;13.33;12.33;;;16.00;99.90;;;;;;5026697;28;20237;-87
2023/05/07 05:12:45;;;;;;;12.00;10.97;;;16.00;99.90;;;;;;5015204;28;20635;-85
2023/05/07 05:15:12;;;;;;;12.67;11.70;;;16.00;99.90;;;;;;5013547;28;20202;-87
2023/05/07 05:17:39;;;;;;;12.37;11.37;;;16.00;99.90;;;;;;5014818;28;20693;-87
2023/05/07 05:20:05;;;;;;;12.77;11.77;;;16.00;99.90;;;;;;5013269;28;20410;-87
2023/05/07 05:22:32;;;;;;;12.87;11.77;;;16.10;99.90;;;;;;5012847;28;20751;-86
2023/05/07 05:24:58;;;;;;;12.87;11.73;;;16.10;99.90;;;;;;5013622;28;20409;-86
2023/05/07 05:27:23;;;;;;;12.40;11.53;;;16.10;99.90;;;;;;5013100;28;20420;-87
2023/05/07 05:29:49;;;;;;;12.03;11.23;;;16.10;99.90;;;;;;5013406;28;20237;-80
2023/05/07 05:32:15;;;;;;;12.47;11.40;;;16.20;99.90;;;;;;5012725;28;20413;-74
2023/05/07 05:34:41;;;;;;;10.90;10.20;;;16.30;99.90;;;;;;5013226;28;20167;-73
2023/05/07 05:37:06;;;;;;;11.00;10.30;;;16.30;99.90;;;;;;5009839;28;20214;-73
2023/05/07 05:39:32;;;;;;;10.97;10.17;;;16.40;99.90;;;;;;5013704;28;20214;-73
2023/05/07 05:41:58;;;;;;;9.80;8.97;;;16.50;99.90;;;;;;5012135;28;20187;-73
2023/05/07 05:44:24;;;;;;;11.17;10.30;;;16.50;99.90;;;;;;5011894;28;20179;-73
2023/05/07 05:46:49;;;;;;;12.37;10.80;;;16.50;99.90;;;;;;5011760;28;20569;-73
2023/05/07 05:49:15;;;;;;;10.17;9.37;;;16.40;99.90;;;;;;5011710;28;20179;-73
2023/05/07 05:51:43;;;;;;;9.70;9.07;;;16.40;99.90;;;;;;5012461;28;20686;-74
2023/05/07 05:54:09;;;;;;;10.67;9.87;;;16.50;99.90;;;;;;5012439;28;20409;-73
2023/05/07 05:56:34;;;;;;;10.07;9.37;;;16.60;99.90;;;;;;5009472;28;20496;-73
2023/05/07 05:59:00;;;;;;;10.50;9.60;;;16.60;99.90;;;;;;5007183;28;20196;-73
2023/05/07 06:01:26;;;;;;;10.03;9.23;;;16.70;99.90;;;;;;5004801;28;20191;-73
2023/05/07 06:03:52;;;;;;;10.83;10.10;;;16.80;99.90;;;;;;5007230;28;20263;-73
2023/05/07 06:06:18;;;;;;;10.77;9.97;;;16.80;99.90;;;;;;5000135;28;20183;-73
2023/05/07 06:08:43;;;;;;;10.10;9.40;;;16.90;99.90;;;;;;4992446;28;20776;-73
2023/05/07 06:11:09;;;;;;;10.57;9.77;;;16.80;99.90;;;;;;5003683;28;20278;-73
2023/05/07 06:13:35;;;;;;;10.00;9.20;;;16.70;99.90;;;;;;5011861;28;20262;-73
2023/05/07 06:16:01;;;;;;;10.00;9.30;;;16.70;99.90;;;;;;5011952;28;20413;-74
2023/05/07 06:18:27;;;;;;;9.60;9.00;;;16.90;99.90;;;;;;5011128;28;20211;-73
2023/05/07 06:20:53;;;;;;;9.43;8.57;;;17.00;99.90;;;;;;5011185;28;20541;-74
2023/05/07 06:23:19;;;;;;;9.40;8.53;;;17.10;99.90;;;;;;5008691;28;20336;-73
2023/05/07 06:25:51;;;;;;;9.33;8.53;;;17.10;99.90;;;;;;5011867;28;20960;-74
2023/05/07 06:28:17;;;;;;;9.80;9.07;;;17.10;99.90;;;;;;5009515;28;20522;-73
2023/05/07 06:30:42;;;;;;;8.20;7.60;;;17.00;99.90;;;;;;5011558;28;20462;-73
2023/05/07 06:33:08;;;;;;;9.10;8.50;;;16.80;99.90;;;;;;5003806;28;20438;-85
2023/05/07 06:35:34;;;;;;;8.93;8.33;;;16.80;99.90;;;;;;5002643;28;20250;-86
2023/05/07 06:38:00;;;;;;;9.43;8.73;;;16.80;99.90;;;;;;5006299;28;20214;-86
2023/05/07 06:40:26;;;;;;;8.43;7.67;;;16.90;99.90;;;;;;5007463;28;20418;-76
2023/05/07 06:42:52;;;;;;;8.40;7.60;;;17.00;99.90;;;;;;5013073;28;20473;-87
2023/05/07 06:45:19;;;;;;;8.23;7.43;;;17.10;99.90;;;;;;5005383;28;20430;-86
2023/05/07 06:47:45;;;;;;;8.43;7.90;;;17.20;99.90;;;;;;5011738;28;20210;-86
2023/05/07 06:50:11;;;;;;;7.93;7.33;;;17.30;99.90;;;;;;5002587;28;20462;-85
2023/05/07 06:52:37;;;;;;;7.27;6.77;;;17.40;99.90;;;;;;5016315;28;20434;-87
2023/05/07 06:55:03;;;;;;;8.23;7.73;;;17.40;99.90;;;;;;5025546;28;20421;-87
2023/05/07 06:57:29;;;;;;;6.90;6.30;;;17.50;99.90;;;;;;5017604;28;20290;-87
2023/05/07 06:59:55;;;;;;;6.90;6.50;;;17.50;99.90;;;;;;4993873;28;20447;-73
2023/05/07 07:02:21;;;;;;;7.53;7.00;;;17.40;99.90;;;;;;4997550;28;20179;-73
2023/05/07 07:04:47;;;;;;;7.10;6.70;;;17.50;99.90;;;;;;5012383;28;20399;-74
2023/05/07 07:07:13;;;;;;;7.07;6.57;;;17.50;99.90;;;;;;5011278;28;20627;-73
2023/05/07 07:09:38;;;;;;;7.77;7.27;;;17.40;99.90;;;;;;5006002;28;20193;-73
2023/05/07 07:12:04;;;;;;;7.03;6.53;;;17.60;99.90;;;;;;5011587;28;20175;-74
2023/05/07 07:14:30;;;;;;;14.57;13.20;;;17.90;99.90;;;;;;5006699;28;20183;-73
2023/05/07 07:16:56;;;;;;;9.80;8.90;;;18.30;99.90;;;;;;5006429;28;20465;-73
2023/05/07 07:19:22;;;;;;;7.50;6.93;;;18.50;99.90;;;;;;5001641;28;20426;-73
2023/05/07 07:21:48;;;;;;;6.43;6.03;;;18.70;99.90;;;;;;5004490;28;20187;-73
2023/05/07 07:24:18;;;;;;;7.10;6.60;;;18.80;99.90;;;;;;5001334;28;20171;-73
2023/05/07 07:26:45;;;;;;;5.87;5.57;;;18.90;99.90;;;;;;5001772;28;20565;-73
2023/05/07 07:29:10;;;;;;;12.97;10.30;;;19.00;99.90;;;;;;5005238;28;20863;-79
2023/05/07 07:31:36;;;;;;;15.90;14.30;;;19.20;99.90;;;;;;5008073;28;20430;-80
2023/05/07 07:34:02;;;;;;;15.33;13.70;;;19.30;99.90;;;;;;5011110;28;20179;-79
2023/05/07 07:36:27;;;;;;;7.37;6.83;;;19.50;99.90;;;;;;5010690;28;20179;-79
2023/05/07 07:38:53;;;;;;;7.33;6.83;;;19.60;99.90;;;;;;5009712;28;20187;-79
2023/05/07 07:41:19;;;;;;;6.67;6.17;;;19.60;99.90;;;;;;5011237;28;20174;-80
2023/05/07 07:43:46;;;;;;;6.80;6.40;;;19.50;99.90;;;;;;5011297;28;20774;-83
2023/05/07 07:46:12;;;;;;;6.03;5.63;;;19.50;99.90;;;;;;5010887;28;20266;-80
2023/05/07 07:48:38;;;;;;;7.20;6.73;;;19.60;99.90;;;;;;5008632;28;21040;-81
2023/05/07 07:51:04;;;;;;;8.47;7.47;;;19.70;99.90;;;;;;4999295;28;20234;-81
2023/05/07 07:53:30;;;;;;;240.23;181.20;;;19.70;99.90;;;;;;5008123;28;20175;-80
2023/05/07 07:55:56;;;;;;;169.70;122.67;;;19.80;99.90;;;;;;4996494;28;20485;-80
2023/05/07 07:58:22;;;;;;;21.40;19.00;;;19.80;99.90;;;;;;5001722;28;20715;-81
2023/05/07 08:00:48;;;;;;;8.10;7.30;;;19.80;99.90;;;;;;5002364;28;20187;-75
2023/05/07 08:03:16;;;;;;;7.43;6.80;;;19.90;99.90;;;;;;5010563;28;20429;-75
2023/05/07 08:05:42;;;;;;;7.20;6.70;;;19.80;99.90;;;;;;5007230;28;20425;-75
2023/05/07 08:08:08;;;;;;;7.20;6.70;;;19.80;99.90;;;;;;5005539;28;20529;-74
2023/05/07 08:10:34;;;;;;;7.23;6.63;;;19.70;99.90;;;;;;5004068;28;20414;-75
2023/05/07 08:13:00;;;;;;;6.60;6.10;;;19.70;99.90;;;;;;5006130;28;20403;-74
2023/05/07 08:15:26;;;;;;;7.43;6.93;;;19.60;99.90;;;;;;5006474;28;20439;-77
2023/05/07 08:17:52;;;;;;;6.93;6.43;;;19.50;99.90;;;;;;5007033;28;20562;-75
2023/05/07 08:20:17;;;;;;;6.77;6.37;;;19.50;99.90;;;;;;5003451;28;20172;-75
2023/05/07 08:22:43;;;;;;;7.40;6.90;;;19.40;99.90;;;;;;5007853;28;20186;-75
2023/05/07 08:25:09;;;;;;;6.73;6.30;;;19.40;99.90;;;;;;5004452;28;20171;-75
2023/05/07 08:27:35;;;;;;;7.70;7.10;;;19.30;99.90;;;;;;5001554;28;20203;-75
2023/05/07 08:30:01;;;;;;;106.93;73.67;;;19.20;99.90;;;;;;5009303;28;20473;-75
2023/05/07 08:32:27;;;;;;;116.20;92.63;;;19.20;99.90;;;;;;5006908;28;20233;-75
2023/05/07 08:34:53;;;;;;;25.63;22.50;;;19.40;99.90;;;;;;5004893;28;20460;-74
2023/05/07 08:37:19;;;;;;;6.87;6.47;;;19.50;99.90;;;;;;5002983;28;20269;-75
2023/05/07 08:39:44;;;;;;;6.30;5.77;;;19.60;99.90;;;;;;5005605;28;20179;-75
2023/05/07 08:42:12;;;;;;;5.33;4.93;;;19.80;99.90;;;;;;5005169;28;20616;-76
2023/05/07 08:44:39;;;;;;;5.70;5.30;;;19.90;99.90;;;;;;5005332;28;20190;-75
2023/05/07 08:47:07;;;;;;;6.67;6.17;;;19.80;99.90;;;;;;5004987;28;20426;-74
2023/05/07 08:49:34;;;;;;;6.00;5.37;;;20.00;99.90;;;;;;5004406;28;20434;-75
2023/05/07 08:52:00;;;;;;;6.60;6.10;;;20.30;99.90;;;;;;4999599;28;20478;-75
2023/05/07 08:54:27;;;;;;;115.73;69.00;;;20.60;99.90;;;;;;5000727;28;20426;-75
2023/05/07 08:56:53;;;;;;;184.90;122.30;;;20.80;99.90;;;;;;5005204;28;20505;-75
2023/05/07 08:59:19;;;;;;;12.50;11.20;;;20.90;99.90;;;;;;5001524;28;20472;-75
2023/05/07 09:01:45;;;;;;;7.30;6.43;;;21.20;99.90;;;;;;5000737;28;20442;-75
2023/05/07 09:04:12;;;;;;;5.40;5.00;;;21.30;99.90;;;;;;5000052;28;20285;-72
2023/05/07 09:06:41;;;;;;;5.53;5.23;;;21.50;99.90;;;;;;4998677;28;20465;-72
2023/05/07 09:09:07;;;;;;;5.57;5.27;;;21.60;99.90;;;;;;4998138;28;20438;-72
2023/05/07 09:11:33;;;;;;;4.97;4.70;;;21.60;99.90;;;;;;4998584;28;20434;-74
2023/05/07 09:14:01;;;;;;;4.80;4.50;;;21.70;99.90;;;;;;4998206;28;20917;-74
2023/05/07 09:16:30;;;;;;;4.80;4.50;;;21.70;99.90;;;;;;5000032;28;20520;-74
2023/05/07 09:18:58;;;;;;;5.30;5.00;;;21.70;99.90;;;;;;4999922;28;20832;-74
2023/05/07 09:21:23;;;;;;;4.97;4.67;;;21.60;99.90;;;;;;5004260;28;20452;-74
2023/05/07 09:23:54;;;;;;;54.17;48.40;;;21.60;99.90;;;;;;5005835;28;20955;-73
2023/05/07 09:26:23;;;;;;;552.70;473.03;;;21.50;99.90;;;;;;5004838;28;20596;-73
2023/05/07 09:28:50;;;;;;;9.67;8.93;;;21.60;99.90;;;;;;5011236;28;20460;-73
2023/05/07 09:31:15;;;;;;;5.43;4.70;;;21.50;99.90;;;;;;5013179;28;20776;-74
2023/05/07 09:33:41;;;;;;;5.17;4.80;;;21.40;99.90;;;;;;5006743;28;20423;-74
2023/05/07 09:36:09;;;;;;;5.37;4.97;;;21.50;99.90;;;;;;4993774;28;20172;-74
2023/05/07 09:38:36;;;;;;;5.40;5.00;;;21.70;99.90;;;;;;4994098;28;20203;-74
2023/05/07 09:41:10;;;;;;;5.10;4.90;;;21.80;99.90;;;;;;4998475;28;20440;-73
2023/05/07 09:43:37;;;;;;;5.43;5.00;;;22.00;99.90;;;;;;5012233;28;20452;-72
2023/05/07 09:46:14;;;;;;;4.90;4.60;;;22.40;99.90;;;;;;5003307;28;20433;-73
2023/05/07 09:48:42;;;;;;;5.10;4.80;;;22.70;99.90;;;;;;5010867;28;20436;-73
2023/05/07 09:51:39;;;;;;;5.27;4.80;;;23.00;99.90;;;;;;5010417;28;20465;-73
2023/05/07 09:54:06;;;;;;;6.53;6.10;;;23.20;99.90;;;;;;5006537;28;20457;-73
2023/05/07 09:56:32;;;;;;;5.80;5.60;;;23.10;96.80;;;;;;5006349;28;20422;-73
2023/05/07 09:59:00;;;;;;;6.33;6.03;;;23.20;99.90;;;;;;4999159;28;20910;-73
2023/05/07 10:01:28;;;;;;;6.30;5.70;;;23.60;99.90;;;;;;5006407;28;20190;-73
2023/05/07 10:03:55;;;;;;;5.40;5.10;;;23.80;99.10;;;;;;4992747;28;20558;-73
2023/05/07 10:06:22;;;;;;;5.70;5.40;;;23.90;98.60;;;;;;5002531;28;20422;-74
2023/05/07 10:08:49;;;;;;;5.30;5.10;;;23.80;98.30;;;;;;4997348;28;20488;-73
2023/05/07 10:11:16;;;;;;;5.30;5.10;;;23.80;96.30;;;;;;4991624;28;20418;-73
2023/05/07 10:13:43;;;;;;;5.00;4.80;;;23.70;94.60;;;;;;5009844;28;20904;-73
2023/05/07 10:16:09;;;;;;;5.33;5.13;;;23.50;94.50;;;;;;4997553;28;20426;-73
2023/05/07 10:18:35;;;;;;;5.23;5.03;;;23.30;95.70;;;;;;5011995;28;20476;-73
2023/05/07 10:21:20;;;;;;;5.47;5.20;;;23.20;95.10;;;;;;5003081;28;20186;-74
2023/05/07 10:23:58;;;;;;;4.90;4.70;;;23.00;95.70;;;;;;5002728;28;20194;-73
2023/05/07 10:26:27;;;;;;;5.40;5.20;;;23.00;95.10;;;;;;5005975;28;20556;-74
2023/05/07 10:29:07;;;;;;;6.93;6.47;;;22.90;96.20;;;;;;4991780;28;20422;-73
2023/05/07 10:31:41;;;;;;;6.80;6.30;;;22.90;97.50;;;;;;5000877;28;20437;-73
2023/05/07 10:34:12;;;;;;;8.93;8.33;;;22.70;97.20;;;;;;5008048;28;20887;-73
2023/05/07 10:36:39;;;;;;;9.10;8.50;;;22.70;99.90;;;;;;5011199;28;20417;-73
2023/05/07 10:39:06;;;;;;;9.60;8.93;;;22.70;99.90;;;;;;5011999;28;20429;-73
2023/05/07 10:41:32;;;;;;;9.93;9.13;;;22.60;99.90;;;;;;5011205;28;20860;-73
2023/05/07 10:44:01;;;;;;;9.83;9.23;;;22.50;99.90;;;;;;5012649;28;20490;-74
2023/05/07 10:46:26;;;;;;;9.77;9.07;;;22.50;99.90;;;;;;5007870;28;20175;-73
2023/05/07 10:49:06;;;;;;;9.20;8.43;;;22.50;99.90;;;;;;5012479;28;20414;-73
2023/05/07 10:51:32;;;;;;;9.47;8.87;;;22.60;99.90;;;;;;5008421;28;20571;-74
2023/05/07 10:54:14;;;;;;;9.13;8.30;;;22.70;99.90;;;;;;5011243;28;20425;-74
2023/05/07 10:56:43;;;;;;;9.10;8.50;;;22.70;99.90;;;;;;5012452;28;20489;-73
2023/05/07 10:59:23;;;;;;;7.77;7.17;;;23.00;99.90;;;;;;5012304;28;20465;-74
2023/05/07 11:02:02;;;;;;;8.20;7.47;;;23.20;99.90;;;;;;5003436;28;20431;-74
2023/05/07 11:04:29;;;;;;;8.33;7.63;;;23.50;99.90;;;;;;5000039;28;20429;-73
2023/05/07 11:07:09;;;;;;;6.90;6.40;;;23.90;99.90;;;;;;5012405;28;20465;-73
2023/05/07 11:09:54;;;;;;;8.17;7.60;;;24.30;99.90;;;;;;5007214;28;20855;-73
2023/05/07 11:12:53;;;;;;;9.00;8.40;;;24.50;97.50;;;;;;5001356;28;20402;-73
2023/05/07 11:15:36;;;;;;;9.60;8.90;;;24.40;95.00;;;;;;4968916;28;20915;-74
2023/05/07 11:18:03;;;;;;;9.83;9.13;;;24.10;95.90;;;;;;5002345;28;21013;-72
2023/05/07 11:20:54;;;;;;;10.87;10.17;;;23.90;97.40;;;;;;5000884;28;20495;-74
2023/05/07 11:23:35;;;;;;;8.30;7.70;;;23.80;98.20;;;;;;5001635;28;20402;-73
2023/05/07 11:26:09;;;;;;;8.30;7.73;;;23.50;97.70;;;;;;5000043;28;20426;-73
2023/05/07 11:28:40;;;;;;;8.93;8.33;;;23.30;99.40;;;;;;4999519;28;20925;-73
2023/05/07 11:31:08;;;;;;;7.13;6.63;;;23.30;99.90;;;;;;5000241;28;20426;-74
2023/05/07 11:33:35;;;;;;;7.90;7.40;;;23.10;98.90;;;;;;5003323;28;20394;-73
2023/05/07 11:36:03;;;;;;;8.47;7.80;;;23.00;99.90;;;;;;5003952;28;20419;-74
2023/05/07 11:38:34;;;;;;;70.17;62.70;;;23.00;99.90;;;;;;5005013;28;20454;-74
2023/05/07 11:41:01;;;;;;;139.47;98.30;;;22.90;99.90;;;;;;5005676;28;20906;-74
2023/05/07 11:43:27;;;;;;;21.70;19.57;;;22.80;99.90;;;;;;5003503;28;20465;-74
2023/05/07 11:45:53;;;;;;;174.13;155.33;;;22.80;99.90;;;;;;5006305;28;20754;-74
2023/05/07 11:48:22;;;;;;;494.03;432.80;;;22.70;99.90;;;;;;5001810;28;20485;-75
2023/05/07 11:51:11;;;;;;;16.97;15.33;;;22.60;99.90;;;;;;5004106;28;20228;-75
2023/05/07 11:53:42;;;;;;;9.50;8.60;;;22.50;99.90;;;;;;5005401;28;20458;-72
2023/05/07 11:56:09;;;;;;;9.57;8.77;;;22.20;99.90;;;;;;5003670;28;20403;-72
2023/05/07 11:58:36;;;;;;;9.90;9.10;;;22.00;99.90;;;;;;5004037;28;20842;-72
2023/05/07 12:01:01;;;;;;;9.63;8.93;;;21.90;99.90;;;;;;5005642;28;20414;-72
2023/05/07 12:03:27;;;;;;;8.80;8.10;;;22.00;99.90;;;;;;5003239;28;20840;-72
2023/05/07 12:05:55;;;;;;;9.57;8.70;;;22.10;99.90;;;;;;5004133;28;20213;-72
2023/05/07 12:08:22;;;;;;;11.80;9.27;;;22.20;99.90;;;;;;5004709;28;20450;-72
2023/05/07 12:10:50;;;;;;;13.73;12.57;;;22.30;99.90;;;;;;5003848;28;20191;-72
2023/05/07 12:13:20;;;;;;;10.77;9.97;;;22.40;99.90;;;;;;5003143;28;20437;-72
2023/05/07 12:15:46;;;;;;;9.70;8.90;;;22.60;99.90;;;;;;5005336;28;20422;-72
2023/05/07 12:18:13;;;;;;;10.17;9.33;;;22.80;99.90;;;;;;5002229;28;20497;-72
2023/05/07 12:20:39;;;;;;;10.20;9.50;;;22.90;99.90;;;;;;5003277;28;20942;-75
2023/05/07 12:23:05;;;;;;;9.60;8.80;;;22.90;99.90;;;;;;5002479;28;20985;-75
2023/05/07 12:25:47;;;;;;;11.30;10.40;;;23.00;99.90;;;;;;5004283;28;20406;-75
2023/05/07 12:28:17;;;;;;;10.83;9.93;;;23.00;99.90;;;;;;5003904;28;20494;-74
2023/05/07 12:30:44;;;;;;;11.33;10.53;;;22.50;99.90;;;;;;5002982;28;20431;-75
2023/05/07 12:33:10;;;;;;;9.67;8.87;;;22.40;99.90;;;;;;5003496;28;20815;-74
2023/05/07 12:35:39;;;;;;;10.57;9.80;;;22.40;99.90;;;;;;5004484;28;20415;-74